LVOSP SAME-SADF
Flight info
| Callsign | LVOSP |
|---|---|
| Flight time | 1h 11m |
| Altitude | 41000 |
| Route | KAMUV2G KAMUV UT670 SNT DCT TRINI |
| Aircraft | GLF6/M-SBDE2E3FGHIJ1J3J4J7M1RWXYZ/LV1D1 |
Departure
| Time | 2026-04-30 03:03 |
|---|---|
| Airport | Governor Francisco Gabrielli International Airport (SAME) |
Arrival
| Time | 2026-04-30 04:14 |
|---|---|
| Airport | San Fernando Airport (SADF) |
| Time | Latitude | Longitude | Altitude | Speed | Heading |
|---|---|---|---|---|---|
| 2026-04-30 02:36 | -32.82879 | -68.79658 | 2319 ft | 0 kts | 90° |
| 2026-04-30 02:58 | -32.82879 | -68.79655 | 2319 ft | 1 kts | 100° |
| 2026-04-30 02:58 | -32.82887 | -68.79644 | 2319 ft | 2 kts | 145° |
| 2026-04-30 02:58 | -32.82912 | -68.79631 | 2319 ft | 5 kts | 155° |
| 2026-04-30 02:58 | -32.82947 | -68.79604 | 2319 ft | 7 kts | 138° |
| 2026-04-30 02:59 | -32.82987 | -68.79558 | 2319 ft | 8 kts | 113° |
| 2026-04-30 02:59 | -32.82954 | -68.79510 | 2319 ft | 9 kts | 7° |
| 2026-04-30 02:59 | -32.82879 | -68.79507 | 2319 ft | 11 kts | 2° |
| 2026-04-30 02:59 | -32.82791 | -68.79505 | 2319 ft | 13 kts | 0° |
| 2026-04-30 03:00 | -32.82690 | -68.79504 | 2319 ft | 15 kts | 1° |
| 2026-04-30 03:00 | -32.82575 | -68.79503 | 2319 ft | 17 kts | 1° |
| 2026-04-30 03:00 | -32.82449 | -68.79500 | 2319 ft | 18 kts | 359° |
| 2026-04-30 03:00 | -32.82343 | -68.79499 | 2319 ft | 14 kts | 359° |
| 2026-04-30 03:01 | -32.82239 | -68.79497 | 2319 ft | 15 kts | 1° |
| 2026-04-30 03:01 | -32.82123 | -68.79496 | 2319 ft | 17 kts | 1° |
| 2026-04-30 03:01 | -32.82000 | -68.79494 | 2319 ft | 15 kts | 2° |
| 2026-04-30 03:01 | -32.81912 | -68.79449 | 2319 ft | 14 kts | 53° |
| 2026-04-30 03:02 | -32.81915 | -68.79333 | 2319 ft | 16 kts | 128° |
| 2026-04-30 03:02 | -32.82010 | -68.79268 | 2319 ft | 18 kts | 178° |
| 2026-04-30 03:02 | -32.82431 | -68.79275 | 2319 ft | 123 kts | 182° |
| 2026-04-30 03:02 | -32.83591 | -68.79298 | 2770 ft | 197 kts | 181° |
| 2026-04-30 03:03 | -32.84987 | -68.79318 | 4139 ft | 215 kts | 180° |
| 2026-04-30 03:03 | -32.88217 | -68.79151 | 6085 ft | 273 kts | 161° |
| 2026-04-30 03:03 | -32.89709 | -68.77713 | 7455 ft | 286 kts | 121° |
| 2026-04-30 03:04 | -32.90261 | -68.75567 | 9196 ft | 283 kts | 97° |
| 2026-04-30 03:04 | -32.90384 | -68.73198 | 10417 ft | 299 kts | 91° |
| 2026-04-30 03:04 | -32.90429 | -68.70671 | 11370 ft | 322 kts | 91° |
| 2026-04-30 03:04 | -32.90463 | -68.67899 | 12153 ft | 349 kts | 91° |
| 2026-04-30 03:05 | -32.90492 | -68.64964 | 12953 ft | 345 kts | 90° |
| 2026-04-30 03:05 | -32.90517 | -68.62246 | 12993 ft | 333 kts | 90° |
| 2026-04-30 03:05 | -32.90541 | -68.59269 | 13216 ft | 378 kts | 90° |
| 2026-04-30 03:05 | -32.90559 | -68.57130 | 14220 ft | 381 kts | 90° |
| 2026-04-30 03:06 | -32.90585 | -68.54012 | 15699 ft | 384 kts | 90° |
| 2026-04-30 03:06 | -32.90610 | -68.50761 | 16722 ft | 400 kts | 91° |
| 2026-04-30 03:06 | -32.90635 | -68.47463 | 18071 ft | 406 kts | 91° |
| 2026-04-30 03:06 | -32.90659 | -68.44061 | 19243 ft | 418 kts | 91° |
| 2026-04-30 03:07 | -32.90683 | -68.40604 | 20451 ft | 428 kts | 91° |
| 2026-04-30 03:07 | -32.90707 | -68.37045 | 21691 ft | 437 kts | 92° |
| 2026-04-30 03:07 | -32.90731 | -68.33367 | 22883 ft | 447 kts | 91° |
| 2026-04-30 03:07 | -32.90754 | -68.29633 | 24062 ft | 455 kts | 92° |
| 2026-04-30 03:08 | -32.90776 | -68.25838 | 25156 ft | 464 kts | 92° |
| 2026-04-30 03:08 | -32.90798 | -68.22009 | 26208 ft | 472 kts | 93° |
| 2026-04-30 03:08 | -32.90818 | -68.18083 | 27244 ft | 479 kts | 93° |
| 2026-04-30 03:08 | -32.90838 | -68.14071 | 28232 ft | 486 kts | 94° |
| 2026-04-30 03:09 | -32.90857 | -68.10066 | 29178 ft | 493 kts | 94° |
| 2026-04-30 03:09 | -32.90875 | -68.05936 | 30122 ft | 499 kts | 94° |
| 2026-04-30 03:09 | -32.90891 | -68.01829 | 31013 ft | 504 kts | 95° |
| 2026-04-30 03:09 | -32.90905 | -67.97643 | 32141 ft | 502 kts | 95° |
| 2026-04-30 03:10 | -32.90917 | -67.93567 | 33400 ft | 495 kts | 96° |
| 2026-04-30 03:10 | -32.90929 | -67.89521 | 34516 ft | 491 kts | 96° |
| 2026-04-30 03:10 | -32.90943 | -67.85458 | 35486 ft | 489 kts | 96° |
| 2026-04-30 03:10 | -32.90952 | -67.81404 | 36409 ft | 487 kts | 96° |
| 2026-04-30 03:11 | -32.90961 | -67.77404 | 37259 ft | 487 kts | 96° |
| 2026-04-30 03:11 | -32.90969 | -67.73409 | 38009 ft | 487 kts | 97° |
| 2026-04-30 03:11 | -32.91257 | -67.69468 | 38703 ft | 479 kts | 106° |
| 2026-04-30 03:11 | -32.91890 | -67.65711 | 39429 ft | 475 kts | 109° |
| 2026-04-30 03:12 | -32.92627 | -67.61877 | 40148 ft | 474 kts | 110° |
| 2026-04-30 03:12 | -32.93370 | -67.58064 | 40785 ft | 475 kts | 110° |
| 2026-04-30 03:12 | -32.94123 | -67.54208 | 40958 ft | 488 kts | 110° |
| 2026-04-30 03:12 | -32.94890 | -67.50264 | 40977 ft | 501 kts | 110° |
| 2026-04-30 03:13 | -32.96472 | -67.42079 | 40962 ft | 502 kts | 110° |
| 2026-04-30 03:13 | -32.98027 | -67.34023 | 40961 ft | 500 kts | 109° |
| 2026-04-30 03:14 | -32.99579 | -67.25956 | 40957 ft | 499 kts | 109° |
| 2026-04-30 03:14 | -33.01111 | -67.17966 | 40955 ft | 499 kts | 109° |
| 2026-04-30 03:15 | -33.02070 | -67.12962 | 40959 ft | 504 kts | 109° |
| 2026-04-30 03:15 | -33.03530 | -67.05300 | 41013 ft | 510 kts | 108° |
| 2026-04-30 03:16 | -33.05106 | -66.96995 | 41015 ft | 511 kts | 107° |
| 2026-04-30 03:16 | -33.06659 | -66.88769 | 41016 ft | 509 kts | 106° |
| 2026-04-30 03:17 | -33.08204 | -66.80578 | 41017 ft | 508 kts | 107° |
| 2026-04-30 03:17 | -33.09759 | -66.72363 | 41017 ft | 507 kts | 107° |
| 2026-04-30 03:18 | -33.11305 | -66.64165 | 41024 ft | 505 kts | 107° |
| 2026-04-30 03:18 | -33.12839 | -66.55999 | 41025 ft | 504 kts | 107° |
| 2026-04-30 03:19 | -33.14368 | -66.47830 | 41025 ft | 505 kts | 107° |
| 2026-04-30 03:19 | -33.15891 | -66.39661 | 41026 ft | 504 kts | 107° |
| 2026-04-30 03:20 | -33.17408 | -66.31493 | 41020 ft | 505 kts | 106° |
| 2026-04-30 03:20 | -33.18920 | -66.23315 | 41021 ft | 505 kts | 106° |
| 2026-04-30 03:21 | -33.20429 | -66.15125 | 41021 ft | 505 kts | 106° |
| 2026-04-30 03:21 | -33.21925 | -66.06988 | 41021 ft | 505 kts | 106° |
| 2026-04-30 03:22 | -33.23418 | -65.98834 | 41022 ft | 505 kts | 106° |
| 2026-04-30 03:22 | -33.24909 | -65.90655 | 41028 ft | 505 kts | 106° |
| 2026-04-30 03:23 | -33.26391 | -65.82502 | 41037 ft | 505 kts | 106° |
| 2026-04-30 03:23 | -33.27867 | -65.74339 | 41048 ft | 504 kts | 106° |
| 2026-04-30 03:24 | -33.29344 | -65.66146 | 41050 ft | 504 kts | 106° |
| 2026-04-30 03:24 | -33.30815 | -65.57948 | 41051 ft | 504 kts | 106° |
| 2026-04-30 03:25 | -33.32273 | -65.49799 | 41051 ft | 504 kts | 106° |
| 2026-04-30 03:25 | -33.33731 | -65.41608 | 41051 ft | 504 kts | 106° |
| 2026-04-30 03:26 | -33.35187 | -65.33395 | 41048 ft | 505 kts | 105° |
| 2026-04-30 03:26 | -33.36649 | -65.25121 | 41046 ft | 505 kts | 105° |
| 2026-04-30 03:27 | -33.38089 | -65.16933 | 41047 ft | 505 kts | 105° |
| 2026-04-30 03:27 | -33.39534 | -65.08686 | 41047 ft | 504 kts | 105° |
| 2026-04-30 03:28 | -33.40968 | -65.00475 | 41045 ft | 507 kts | 105° |
| 2026-04-30 03:28 | -33.42412 | -64.92174 | 41049 ft | 517 kts | 104° |
| 2026-04-30 03:29 | -33.43890 | -64.83634 | 41048 ft | 522 kts | 103° |
| 2026-04-30 03:29 | -33.45361 | -64.75087 | 41049 ft | 523 kts | 103° |
| 2026-04-30 03:30 | -33.46820 | -64.66574 | 41049 ft | 523 kts | 103° |
| 2026-04-30 03:30 | -33.48276 | -64.58054 | 41051 ft | 523 kts | 102° |
| 2026-04-30 03:31 | -33.49682 | -64.49538 | 41051 ft | 523 kts | 102° |
| 2026-04-30 03:31 | -33.51063 | -64.40984 | 41051 ft | 523 kts | 102° |
| 2026-04-30 03:32 | -33.52436 | -64.32443 | 41045 ft | 523 kts | 101° |
| 2026-04-30 03:32 | -33.53801 | -64.23908 | 41045 ft | 523 kts | 101° |
| 2026-04-30 03:33 | -33.55164 | -64.15344 | 41045 ft | 523 kts | 101° |
| 2026-04-30 03:33 | -33.56527 | -64.06741 | 41046 ft | 523 kts | 101° |
| 2026-04-30 03:34 | -33.57877 | -63.98182 | 41047 ft | 523 kts | 101° |
| 2026-04-30 03:34 | -33.59214 | -63.89666 | 41048 ft | 523 kts | 101° |
| 2026-04-30 03:35 | -33.60518 | -63.81320 | 41048 ft | 523 kts | 101° |
| 2026-04-30 03:35 | -33.61881 | -63.72558 | 41049 ft | 523 kts | 101° |
| 2026-04-30 03:36 | -33.63204 | -63.64012 | 41050 ft | 523 kts | 101° |
| 2026-04-30 03:36 | -33.64531 | -63.55392 | 41050 ft | 523 kts | 101° |
| 2026-04-30 03:37 | -33.65843 | -63.46837 | 41051 ft | 523 kts | 101° |
| 2026-04-30 03:37 | -33.67150 | -63.38273 | 41052 ft | 523 kts | 101° |
| 2026-04-30 03:38 | -33.68458 | -63.29655 | 41044 ft | 523 kts | 101° |
| 2026-04-30 03:38 | -33.69752 | -63.21091 | 41045 ft | 523 kts | 101° |
| 2026-04-30 03:39 | -33.71096 | -63.12555 | 41040 ft | 523 kts | 104° |
| 2026-04-30 03:39 | -33.72910 | -63.04118 | 41047 ft | 526 kts | 105° |
| 2026-04-30 03:40 | -33.74742 | -62.95596 | 41048 ft | 529 kts | 105° |
| 2026-04-30 03:40 | -33.76574 | -62.87046 | 41049 ft | 532 kts | 104° |
| 2026-04-30 03:41 | -33.78412 | -62.78429 | 41049 ft | 531 kts | 104° |
| 2026-04-30 03:41 | -33.80240 | -62.69832 | 41050 ft | 531 kts | 104° |
| 2026-04-30 03:42 | -33.82049 | -62.61297 | 41051 ft | 531 kts | 104° |
| 2026-04-30 03:42 | -33.83866 | -62.52689 | 41052 ft | 531 kts | 104° |
| 2026-04-30 03:43 | -33.85681 | -62.44054 | 41053 ft | 531 kts | 104° |
| 2026-04-30 03:43 | -33.87473 | -62.35503 | 41054 ft | 531 kts | 104° |
| 2026-04-30 03:44 | -33.89277 | -62.26864 | 41046 ft | 531 kts | 104° |
| 2026-04-30 03:44 | -33.91058 | -62.18298 | 41046 ft | 531 kts | 104° |
| 2026-04-30 03:45 | -33.92849 | -62.09652 | 41047 ft | 531 kts | 104° |
| 2026-04-30 03:45 | -33.94632 | -62.01018 | 41048 ft | 531 kts | 103° |
| 2026-04-30 03:46 | -33.96397 | -61.92432 | 41049 ft | 531 kts | 103° |
| 2026-04-30 03:46 | -33.98162 | -61.83811 | 41050 ft | 531 kts | 103° |
| 2026-04-30 03:47 | -33.99931 | -61.75141 | 40962 ft | 531 kts | 103° |
| 2026-04-30 03:47 | -34.01690 | -61.66489 | 40865 ft | 531 kts | 103° |
| 2026-04-30 03:48 | -34.03443 | -61.57829 | 40770 ft | 531 kts | 103° |
| 2026-04-30 03:48 | -34.04313 | -61.53523 | 40512 ft | 533 kts | 103° |
| 2026-04-30 03:48 | -34.05183 | -61.49204 | 39986 ft | 532 kts | 103° |
| 2026-04-30 03:49 | -34.06050 | -61.44888 | 39417 ft | 530 kts | 103° |
| 2026-04-30 03:49 | -34.06910 | -61.40608 | 38842 ft | 530 kts | 103° |
| 2026-04-30 03:49 | -34.07774 | -61.36296 | 38262 ft | 529 kts | 103° |
| 2026-04-30 03:49 | -34.08637 | -61.31981 | 37672 ft | 530 kts | 103° |
| 2026-04-30 03:50 | -34.09502 | -61.27646 | 37082 ft | 530 kts | 103° |
| 2026-04-30 03:50 | -34.10361 | -61.23327 | 36498 ft | 529 kts | 103° |
| 2026-04-30 03:50 | -34.11226 | -61.18978 | 35904 ft | 530 kts | 103° |
| 2026-04-30 03:50 | -34.12075 | -61.14698 | 35318 ft | 534 kts | 103° |
| 2026-04-30 03:51 | -34.12941 | -61.10326 | 34730 ft | 539 kts | 103° |
| 2026-04-30 03:51 | -34.13816 | -61.05897 | 34133 ft | 544 kts | 103° |
| 2026-04-30 03:51 | -34.14693 | -61.01450 | 33535 ft | 547 kts | 103° |
| 2026-04-30 03:51 | -34.15576 | -60.96967 | 32923 ft | 550 kts | 102° |
| 2026-04-30 03:52 | -34.16446 | -60.92536 | 32324 ft | 551 kts | 102° |
| 2026-04-30 03:52 | -34.17325 | -60.88047 | 31717 ft | 550 kts | 102° |
| 2026-04-30 03:52 | -34.18201 | -60.83571 | 31110 ft | 549 kts | 102° |
| 2026-04-30 03:52 | -34.19059 | -60.79176 | 30500 ft | 522 kts | 102° |
| 2026-04-30 03:53 | -34.19875 | -60.74990 | 29916 ft | 509 kts | 102° |
| 2026-04-30 03:53 | -34.20681 | -60.70840 | 29370 ft | 506 kts | 102° |
| 2026-04-30 03:53 | -34.21481 | -60.66714 | 28816 ft | 501 kts | 101° |
| 2026-04-30 03:53 | -34.22270 | -60.62641 | 28266 ft | 496 kts | 101° |
| 2026-04-30 03:54 | -34.23043 | -60.58643 | 27726 ft | 490 kts | 101° |
| 2026-04-30 03:54 | -34.23815 | -60.54642 | 27185 ft | 484 kts | 101° |
| 2026-04-30 03:54 | -34.24569 | -60.50728 | 26656 ft | 479 kts | 101° |
| 2026-04-30 03:54 | -34.25323 | -60.46805 | 26127 ft | 474 kts | 101° |
| 2026-04-30 03:55 | -34.26055 | -60.42990 | 25612 ft | 469 kts | 101° |
| 2026-04-30 03:55 | -34.26791 | -60.39144 | 25093 ft | 463 kts | 101° |
| 2026-04-30 03:55 | -34.27512 | -60.35374 | 24584 ft | 459 kts | 101° |
| 2026-04-30 03:55 | -34.28219 | -60.31670 | 24077 ft | 453 kts | 100° |
| 2026-04-30 03:56 | -34.28925 | -60.27964 | 23577 ft | 449 kts | 100° |
| 2026-04-30 03:56 | -34.29624 | -60.24290 | 23081 ft | 444 kts | 100° |
| 2026-04-30 03:56 | -34.30312 | -60.20664 | 22592 ft | 439 kts | 100° |
| 2026-04-30 03:56 | -34.30979 | -60.17147 | 22118 ft | 435 kts | 100° |
| 2026-04-30 03:57 | -34.31646 | -60.13619 | 21643 ft | 431 kts | 100° |
| 2026-04-30 03:57 | -34.32309 | -60.10109 | 21170 ft | 427 kts | 100° |
| 2026-04-30 03:57 | -34.32977 | -60.06570 | 20693 ft | 423 kts | 100° |
| 2026-04-30 03:57 | -34.33624 | -60.03136 | 20231 ft | 419 kts | 100° |
| 2026-04-30 03:58 | -34.34266 | -59.99719 | 19770 ft | 415 kts | 100° |
| 2026-04-30 03:58 | -34.34906 | -59.96307 | 19310 ft | 411 kts | 100° |
| 2026-04-30 03:58 | -34.35531 | -59.92972 | 18861 ft | 407 kts | 100° |
| 2026-04-30 03:58 | -34.36148 | -59.89674 | 18415 ft | 403 kts | 100° |
| 2026-04-30 03:59 | -34.36762 | -59.86386 | 17972 ft | 400 kts | 100° |
| 2026-04-30 03:59 | -34.37371 | -59.83118 | 17532 ft | 396 kts | 100° |
| 2026-04-30 03:59 | -34.37975 | -59.79874 | 17095 ft | 393 kts | 101° |
| 2026-04-30 03:59 | -34.38575 | -59.76648 | 16661 ft | 389 kts | 101° |
| 2026-04-30 04:00 | -34.39164 | -59.73472 | 16234 ft | 386 kts | 101° |
| 2026-04-30 04:00 | -34.39746 | -59.70335 | 15813 ft | 383 kts | 101° |
| 2026-04-30 04:00 | -34.40326 | -59.67201 | 15392 ft | 379 kts | 101° |
| 2026-04-30 04:00 | -34.40892 | -59.64133 | 14979 ft | 376 kts | 101° |
| 2026-04-30 04:01 | -34.41459 | -59.61066 | 14567 ft | 373 kts | 101° |
| 2026-04-30 04:01 | -34.42021 | -59.58014 | 14156 ft | 370 kts | 101° |
| 2026-04-30 04:01 | -34.42575 | -59.55001 | 13751 ft | 367 kts | 101° |
| 2026-04-30 04:01 | -34.43131 | -59.51975 | 13344 ft | 364 kts | 101° |
| 2026-04-30 04:02 | -34.43673 | -59.49019 | 12946 ft | 362 kts | 101° |
| 2026-04-30 04:02 | -34.44217 | -59.46048 | 12544 ft | 359 kts | 102° |
| 2026-04-30 04:02 | -34.44753 | -59.43118 | 12148 ft | 356 kts | 102° |
| 2026-04-30 04:02 | -34.45288 | -59.40188 | 11752 ft | 354 kts | 102° |
| 2026-04-30 04:03 | -34.45817 | -59.37286 | 11360 ft | 352 kts | 102° |
| 2026-04-30 04:03 | -34.46341 | -59.34409 | 10972 ft | 349 kts | 101° |
| 2026-04-30 04:03 | -34.46842 | -59.31661 | 10578 ft | 313 kts | 101° |
| 2026-04-30 04:03 | -34.47288 | -59.29208 | 10207 ft | 290 kts | 101° |
| 2026-04-30 04:04 | -34.47716 | -59.26844 | 9910 ft | 287 kts | 101° |
| 2026-04-30 04:04 | -34.48146 | -59.24468 | 9617 ft | 286 kts | 101° |
| 2026-04-30 04:04 | -34.48568 | -59.22139 | 9318 ft | 285 kts | 101° |
| 2026-04-30 04:04 | -34.48994 | -59.19778 | 9005 ft | 284 kts | 101° |
| 2026-04-30 04:05 | -34.49411 | -59.17471 | 8698 ft | 282 kts | 101° |
| 2026-04-30 04:05 | -34.49832 | -59.15136 | 8385 ft | 281 kts | 101° |
| 2026-04-30 04:05 | -34.50244 | -59.12848 | 8079 ft | 280 kts | 101° |
| 2026-04-30 04:05 | -34.50657 | -59.10553 | 7771 ft | 278 kts | 101° |
| 2026-04-30 04:06 | -34.51072 | -59.08242 | 7462 ft | 277 kts | 101° |
| 2026-04-30 04:06 | -34.51483 | -59.05956 | 7155 ft | 276 kts | 101° |
| 2026-04-30 04:06 | -34.51887 | -59.03702 | 6853 ft | 274 kts | 101° |
| 2026-04-30 04:06 | -34.52294 | -59.01429 | 6548 ft | 273 kts | 102° |
| 2026-04-30 04:07 | -34.52692 | -58.99208 | 6249 ft | 272 kts | 102° |
| 2026-04-30 04:07 | -34.53099 | -58.96927 | 5942 ft | 271 kts | 102° |
| 2026-04-30 04:07 | -34.53496 | -58.94705 | 5641 ft | 269 kts | 102° |
| 2026-04-30 04:08 | -34.54286 | -58.90274 | 5040 ft | 267 kts | 102° |
| 2026-04-30 04:08 | -34.54673 | -58.88100 | 4735 ft | 265 kts | 102° |
| 2026-04-30 04:08 | -34.55061 | -58.85914 | 4437 ft | 264 kts | 102° |
| 2026-04-30 04:08 | -34.55447 | -58.83739 | 4143 ft | 261 kts | 102° |
| 2026-04-30 04:09 | -34.55810 | -58.81692 | 3847 ft | 240 kts | 102° |
| 2026-04-30 04:09 | -34.56123 | -58.79770 | 3561 ft | 222 kts | 95° |
| 2026-04-30 04:09 | -34.56116 | -58.77963 | 3341 ft | 208 kts | 88° |
| 2026-04-30 04:09 | -34.56054 | -58.76204 | 3123 ft | 205 kts | 87° |
| 2026-04-30 04:10 | -34.55971 | -58.74456 | 2905 ft | 205 kts | 86° |
| 2026-04-30 04:10 | -34.55880 | -58.72745 | 2733 ft | 195 kts | 86° |
| 2026-04-30 04:10 | -34.55529 | -58.71266 | 2526 ft | 182 kts | 56° |
| 2026-04-30 04:10 | -34.54776 | -58.70013 | 2409 ft | 183 kts | 49° |
| 2026-04-30 04:11 | -34.53873 | -58.68952 | 2186 ft | 182 kts | 43° |
| 2026-04-30 04:11 | -34.52944 | -58.67885 | 1947 ft | 182 kts | 44° |
| 2026-04-30 04:11 | -34.52038 | -58.66821 | 1708 ft | 181 kts | 44° |
| 2026-04-30 04:11 | -34.51176 | -58.65808 | 1512 ft | 165 kts | 44° |
| 2026-04-30 04:12 | -34.50365 | -58.64854 | 1270 ft | 160 kts | 44° |
| 2026-04-30 04:12 | -34.49571 | -58.63920 | 1047 ft | 159 kts | 44° |
| 2026-04-30 04:12 | -34.48788 | -58.63000 | 836 ft | 144 kts | 44° |
| 2026-04-30 04:12 | -34.48140 | -58.62239 | 632 ft | 119 kts | 44° |
| 2026-04-30 04:13 | -34.47549 | -58.61545 | 483 ft | 114 kts | 44° |
| 2026-04-30 04:13 | -34.46982 | -58.60880 | 341 ft | 114 kts | 44° |
| 2026-04-30 04:13 | -34.46401 | -58.60198 | 181 ft | 115 kts | 44° |
| 2026-04-30 04:13 | -34.45817 | -58.59522 | 29 ft | 115 kts | 44° |
| 2026-04-30 04:14 | -34.45306 | -58.58922 | 17 ft | 83 kts | 45° |
| 2026-04-30 04:14 | -34.45088 | -58.58662 | 17 ft | 9 kts | 44° |
| 2026-04-30 04:14 | -34.45021 | -58.58579 | 17 ft | 15 kts | 46° |
| 2026-04-30 04:14 | -34.44933 | -58.58481 | 17 ft | 18 kts | 41° |
| 2026-04-30 04:15 | -34.44849 | -58.58361 | 17 ft | 18 kts | 84° |
| 2026-04-30 04:15 | -34.44941 | -58.58249 | 17 ft | 21 kts | 151° |
| 2026-04-30 04:15 | -34.45044 | -58.58176 | 17 ft | 16 kts | 147° |
| 2026-04-30 04:15 | -34.45145 | -58.58102 | 17 ft | 18 kts | 150° |
| 2026-04-30 04:16 | -34.45234 | -58.58038 | 17 ft | 8 kts | 149° |
| 2026-04-30 04:16 | -34.45287 | -58.58002 | 17 ft | 9 kts | 149° |
| 2026-04-30 04:16 | -34.45331 | -58.57983 | 17 ft | 7 kts | 223° |
| 2026-04-30 04:16 | -34.45362 | -58.58052 | 17 ft | 11 kts | 243° |
| 2026-04-30 04:17 | -34.45401 | -58.58143 | 17 ft | 12 kts | 242° |
| 2026-04-30 04:17 | -34.45449 | -58.58256 | 17 ft | 16 kts | 243° |
| 2026-04-30 04:17 | -34.45503 | -58.58381 | 17 ft | 15 kts | 242° |
| 2026-04-30 04:17 | -34.45551 | -58.58492 | 17 ft | 14 kts | 241° |
| 2026-04-30 04:18 | -34.45594 | -58.58593 | 17 ft | 9 kts | 242° |
| 2026-04-30 04:18 | -34.45628 | -58.58670 | 17 ft | 11 kts | 244° |
| 2026-04-30 04:18 | -34.45665 | -58.58761 | 17 ft | 12 kts | 242° |
| 2026-04-30 04:18 | -34.45705 | -58.58849 | 17 ft | 13 kts | 243° |
| 2026-04-30 04:19 | -34.45744 | -58.58942 | 17 ft | 11 kts | 243° |
| 2026-04-30 04:19 | -34.45778 | -58.59021 | 17 ft | 8 kts | 241° |
| 2026-04-30 04:19 | -34.45810 | -58.59095 | 17 ft | 10 kts | 242° |
| 2026-04-30 04:19 | -34.45838 | -58.59163 | 17 ft | 8 kts | 244° |
| 2026-04-30 04:20 | -34.45865 | -58.59223 | 17 ft | 7 kts | 242° |
| 2026-04-30 04:20 | -34.45885 | -58.59269 | 17 ft | 3 kts | 242° |
| 2026-04-30 04:20 | -34.45885 | -58.59271 | 17 ft | 0 kts | 242° |
| 2026-04-30 04:23 | -34.45886 | -58.59271 | 17 ft | 0 kts | 242° |
| 2026-04-30 04:23 | -34.45885 | -58.59271 | 17 ft | 0 kts | 242° |
| 2026-04-30 04:23 | -34.45880 | -58.59255 | 17 ft | 2 kts | 275° |
| 2026-04-30 04:23 | -34.45886 | -58.59240 | 17 ft | 2 kts | 323° |
| 2026-04-30 04:24 | -34.45900 | -58.59233 | 17 ft | 2 kts | 1° |
| 2026-04-30 04:24 | -34.45914 | -58.59237 | 17 ft | 2 kts | 36° |
| 2026-04-30 04:24 | -34.45923 | -58.59251 | 17 ft | 2 kts | 65° |
| 2026-04-30 04:24 | -34.45929 | -58.59263 | 17 ft | 0 kts | 62° |